Latest Weather Observations for Maroochydore

IDQ60901

Issued at 8:01 pm EST Sunday 26 February 2017 (issued every 10 minutes, with the page automatically refreshed every 10 minutes)

About weather observations | Map of Brisbane area stations | Latest observations for Brisbane area | Other Formats
Station Details ID: 040861 Name: SUNSHINE COAST AIRPORT Lat: -26.60 Lon: 153.09 Height: 3.3 m
Data from the previous 72 hours. | See also: Recent months at Maroochydore
Date/Time
EST
Temp
°C
App
Temp
°C
Dew
Point
°C
Rel
Hum
%
Delta-T
°C
Wind Press
QNH
hPa
Press
MSL
hPa
Rain since
9am
mm
Dir  Spd
km/h
Gust
km/h
Spd
kts
Gust
kts
26/07:30pm 25.3 22.0 17.0 60 5.1 SSE 30 41 16 22 1015.8 - 6.8
26/07:00pm 25.4 23.0 18.3 65 4.5 SSE 28 46 15 25 1015.4 - 6.8
26/06:55pm 25.4 23.2 18.6 66 4.3 SSE 28 46 15 25 1015.4 - 6.8
26/06:30pm 25.5 22.9 17.9 63 4.8 SSE 28 41 15 22 1015.1 - 6.8
26/06:00pm 25.6 22.5 18.5 65 4.5 SE 32 43 17 23 1014.6 1014.6 6.8
26/05:30pm 25.9 22.5 17.8 61 5.1 SE 32 43 17 23 1014.3 - 6.8
26/05:00pm 26.3 23.9 18.2 61 5.1 SE 28 37 15 20 1014.2 - 6.8
26/04:30pm 27.0 25.2 18.8 60 5.3 SE 26 35 14 19 1014.4 - 6.8
26/04:00pm 27.5 25.8 19.0 59 5.5 SE 26 35 14 19 1014.4 - 6.8
26/03:30pm 27.1 25.0 18.1 58 5.7 SE 26 35 14 19 1014.1 - 6.8
26/03:00pm 26.2 24.3 18.6 63 4.8 SE 26 35 14 19 1014.2 1014.2 6.8
26/02:30pm 25.8 24.8 19.7 69 3.9 SE 24 35 13 19 1014.3 - 6.8
26/02:00pm 25.6 25.6 21.7 79 2.6 ESE 24 33 13 18 1014.6 - 6.8
26/01:41pm 22.7 20.5 19.5 82 2.0 SSE 30 43 16 23 1015.0 - 6.2
26/01:30pm 25.6 24.6 19.7 70 3.8 SSE 24 37 13 20 1014.8 - 4.2
26/01:00pm 27.3 26.7 20.6 67 4.4 SSE 24 33 13 18 1014.8 - 4.2
26/12:30pm 24.4 25.4 21.1 82 2.2 S 17 26 9 14 1015.2 - 4.2
26/12:00pm 23.9 25.3 20.4 81 2.3 S 13 15 7 8 1015.2 1015.2 4.2
26/11:31am 23.2 24.6 20.3 84 1.9 SSW 13 19 7 10 1015.6 - 4.2
26/11:30am 23.1 24.4 20.2 84 1.9 SSW 13 19 7 10 1015.5 - 4.2
26/11:11am 23.5 23.5 20.2 82 2.1 S 20 30 11 16 1015.7 - 1.8
26/11:00am 24.7 25.3 21.0 80 2.4 S 19 22 10 12 1015.5 - 0.0
26/10:41am 25.0 22.8 18.7 68 4.0 S 28 39 15 21 1015.6 - 0.0
26/10:30am 30.1 30.1 20.9 57 6.1 SE 22 32 12 17 1015.5 - 0.0
26/10:00am 28.7 27.5 19.3 56 6.1 SSE 24 32 13 17 1015.5 - 0.0
26/09:30am 27.6 26.3 19.9 63 5.0 SSE 26 33 14 18 1015.3 - 0.0
26/09:00am 26.5 25.0 19.4 65 4.6 SSE 26 33 14 18 1015.2 1015.2 0.0
26/08:30am 26.2 24.6 18.3 61 5.0 SSE 24 35 13 19 1015.1 - 0.0
26/08:00am 26.0 25.1 18.2 62 4.9 S 20 30 11 16 1015.0 - 0.0
26/07:30am 24.7 23.5 17.4 64 4.5 S 20 26 11 14 1014.9 - 0.0
26/07:00am 23.9 23.1 17.9 69 3.8 S 19 26 10 14 1014.6 - 0.0
26/06:30am 22.6 21.3 16.9 70 3.5 SSW 19 26 10 14 1014.3 - 0.0
26/06:00am 22.3 20.8 16.8 71 3.4 SSW 20 26 11 14 1014.1 1014.1 0.0
26/05:30am 22.3 21.5 17.2 73 3.1 SSW 17 24 9 13 1013.7 - 0.0
26/05:00am 22.3 22.0 17.4 74 3.0 SSW 15 19 8 10 1013.5 - 0.0
26/04:30am 22.4 22.3 17.8 75 2.9 SSW 15 22 8 12 1013.2 - 0.0
26/04:00am 22.5 21.5 17.6 74 3.0 S 19 24 10 13 1013.2 - 0.0
26/03:30am 22.7 22.2 17.8 74 3.0 SSW 17 26 9 14 1013.1 - 0.0
26/03:00am 22.7 22.3 18.0 75 2.9 SSW 17 20 9 11 1013.0 1013.0 0.0
26/02:30am 22.6 22.5 17.9 75 2.9 SSW 15 19 8 10 1013.0 - 0.0
26/02:00am 22.5 22.0 17.8 75 2.9 S 17 22 9 12 1013.0 - 0.0
26/01:30am 22.5 21.7 18.1 76 2.7 S 19 22 10 12 1013.3 - 0.0
26/01:00am 23.2 22.5 18.3 74 3.1 S 19 26 10 14 1013.8 - 0.0
26/12:30am 24.2 24.5 18.8 72 3.4 S 15 24 8 13 1014.1 - 0.0
26/12:00am 23.9 23.0 18.1 70 3.6 S 20 26 11 14 1014.4 1014.4 0.0
 
Date/Time
EST
Temp
°C
App
Temp
°C
Dew
Point
°C
Rel
Hum
%
Delta-T
°C
Wind Press
QNH
hPa
Press
MSL
hPa
Rain since
9am
mm
Dir  Spd
km/h
Gust
km/h
Spd
kts
Gust
kts
25/11:30pm 23.8 22.3 17.8 69 3.7 S 22 28 12 15 1014.8 - 0.0
25/11:00pm 24.0 23.0 17.5 67 4.0 SSW 19 24 10 13 1015.3 - 0.0
25/10:30pm 24.6 24.1 17.8 66 4.3 S 17 24 9 13 1015.3 - 0.0
25/10:00pm 25.2 23.3 17.7 63 4.7 SSE 24 32 13 17 1015.4 - 0.0
25/09:30pm 25.5 23.2 17.7 62 4.9 SSE 26 35 14 19 1015.3 - 0.0
25/09:00pm 25.6 23.3 17.5 61 5.1 SSE 26 35 14 19 1015.2 1015.2 0.0
25/08:30pm 25.7 23.7 17.4 60 5.2 SSE 24 39 13 21 1015.2 - 0.0
25/08:00pm 25.6 23.6 18.3 64 4.6 SE 26 33 14 18 1014.9 - 0.0
25/07:30pm 25.8 23.9 18.5 64 4.6 SSE 26 35 14 19 1014.7 - 0.0
25/07:00pm 25.8 23.9 18.5 64 4.6 SSE 26 35 14 19 1014.4 - 0.0
25/06:30pm 25.5 23.2 18.4 65 4.5 SE 28 37 15 20 1013.9 - 0.0
25/06:00pm 26.0 23.9 18.9 65 4.5 SE 28 35 15 19 1013.7 1013.7 0.0
25/05:30pm 26.4 24.2 18.8 63 4.9 SE 28 37 15 20 1013.5 - 0.0
25/05:00pm 27.2 25.5 19.0 61 5.3 SE 26 37 14 20 1013.4 - 0.0
25/04:30pm 27.7 26.1 18.4 57 5.9 ESE 24 33 13 18 1013.3 - 0.0
25/04:00pm 28.0 26.6 18.7 57 6.0 ESE 24 32 13 17 1013.3 - 0.0
25/03:30pm 27.9 25.4 17.1 51 6.8 ESE 26 33 14 18 1013.1 - 0.0
25/03:00pm 28.8 27.2 18.3 53 6.7 ESE 24 35 13 19 1013.4 1013.4 0.0
25/02:30pm 28.6 26.4 17.8 52 6.9 ESE 26 33 14 18 1013.6 - 0.0
25/02:00pm 29.1 26.8 18.5 52 6.8 ESE 28 33 15 18 1014.0 - 0.0
25/01:30pm 28.5 25.7 16.4 48 7.5 ESE 26 33 14 18 1014.4 - 0.0
25/01:00pm 29.4 26.9 16.2 44 8.2 SE 24 32 13 17 1014.6 - 0.0
25/12:30pm 28.6 25.5 15.5 45 8.0 SE 26 35 14 19 1014.9 - 0.0
25/12:00pm 28.7 26.3 16.3 47 7.7 SE 24 32 13 17 1015.3 1015.3 0.0
25/11:30am 29.6 28.4 17.1 47 7.9 SE 19 24 10 13 1015.5 - 0.0
25/11:00am 28.8 26.0 15.3 43 8.3 SE 24 35 13 19 1015.7 - 0.0
25/10:30am 28.8 26.1 15.7 45 8.1 SE 24 33 13 18 1016.1 - 0.0
25/10:00am 29.3 26.5 15.4 42 8.5 SE 24 30 13 16 1016.2 - 0.0
25/09:30am 27.9 25.3 15.9 48 7.4 SE 24 32 13 17 1016.3 - 0.0
25/09:00am 27.9 25.4 16.2 49 7.2 SSE 24 33 13 18 1016.4 1016.4 0.0
25/08:30am 27.0 25.0 17.5 56 6.0 S 24 33 13 18 1016.3 - 0.0
25/08:00am 25.7 23.1 16.8 58 5.5 S 26 33 14 18 1016.4 - 0.0
25/07:30am 24.8 23.1 17.3 63 4.7 S 22 32 12 17 1016.2 - 0.0
25/07:00am 23.8 22.6 17.5 68 3.9 S 20 28 11 15 1016.0 - 0.0
25/06:30am 22.8 22.4 18.1 75 2.9 SSW 17 22 9 12 1015.8 - 0.0
25/06:00am 21.6 21.9 17.8 79 2.4 SSW 13 17 7 9 1015.6 1015.6 0.0
25/05:30am 21.4 22.3 18.4 83 1.9 SSW 11 17 6 9 1015.4 - 0.0
25/05:00am 21.1 21.7 17.7 81 2.1 SW 11 17 6 9 1015.2 - 0.0
25/04:30am 20.2 21.1 17.6 85 1.6 SW 9 13 5 7 1014.9 - 0.0
25/04:00am 20.3 20.9 17.7 85 1.6 SW 11 13 6 7 1014.7 - 0.0
25/03:30am 20.0 21.0 17.8 87 1.4 WSW 9 13 5 7 1014.6 - 0.0
25/03:00am 20.2 20.7 17.4 84 1.7 SW 11 13 6 7 1014.5 1014.5 0.0
25/02:30am 20.6 21.2 17.8 84 1.7 SW 11 13 6 7 1014.6 - 0.0
25/02:00am 20.7 20.8 17.5 82 2.0 WSW 13 17 7 9 1014.7 - 0.0
25/01:30am 21.7 22.1 16.4 72 3.2 SW 9 13 5 7 1014.8 - 0.0
25/01:00am 24.0 23.3 16.5 63 4.6 SE 15 20 8 11 1014.9 - 0.0
25/12:30am 24.4 24.2 16.6 61 4.8 SE 13 20 7 11 1015.1 - 0.0
25/12:00am 24.8 24.6 17.5 64 4.5 SE 15 20 8 11 1015.3 1015.3 0.0
 
Date/Time
EST
Temp
°C
App
Temp
°C
Dew
Point
°C
Rel
Hum
%
Delta-T
°C
Wind Press
QNH
hPa
Press
MSL
hPa
Rain since
9am
mm
Dir  Spd
km/h
Gust
km/h
Spd
kts
Gust
kts
24/11:30pm 24.8 24.1 17.3 63 4.7 SE 17 24 9 13 1015.5 - 0.0
24/11:00pm 24.9 24.1 17.1 62 4.8 SE 17 24 9 13 1016.1 - 0.0
24/10:30pm 24.9 24.2 17.4 63 4.7 SE 17 20 9 11 1016.4 - 0.0
24/10:00pm 25.1 24.0 17.3 62 4.9 SE 19 26 10 14 1016.4 - 0.0
24/09:30pm 24.9 23.5 16.9 61 4.9 SE 20 26 11 14 1016.6 - 0.0
24/09:00pm 25.1 23.7 17.0 60 5.0 SE 20 26 11 14 1016.8 1016.8 0.0
24/08:30pm 25.2 24.3 17.7 63 4.7 SE 19 24 10 13 1016.7 - 0.0
24/08:00pm 25.2 24.3 17.7 63 4.7 SE 19 26 10 14 1016.7 - 0.0
24/07:30pm 25.3 24.7 18.5 66 4.3 ESE 19 26 10 14 1016.3 - 0.0
24/07:00pm 25.3 24.5 18.0 64 4.6 ESE 19 24 10 13 1016.1 - 0.0
24/06:30pm 25.5 24.6 17.7 62 4.9 ESE 19 24 10 13 1016.0 - 0.0
24/06:00pm 26.0 24.8 17.6 60 5.3 ESE 20 26 11 14 1015.9 1015.9 0.0
24/05:30pm 26.4 24.8 17.5 58 5.6 ESE 22 28 12 15 1015.6 - 0.0
24/05:00pm 26.9 25.5 17.9 57 5.7 ESE 22 28 12 15 1015.6 - 0.0
24/04:30pm 27.2 25.4 17.9 56 5.9 SE 24 32 13 17 1015.6 - 0.0
24/04:00pm 27.7 25.5 17.8 54 6.3 SE 26 33 14 18 1015.6 - 0.0
24/03:30pm 28.2 26.1 18.0 54 6.5 ESE 26 35 14 19 1015.6 - 0.0
24/03:00pm 28.9 26.9 18.4 53 6.7 ESE 26 35 14 19 1015.6 1015.6 0.0
24/02:30pm 29.0 27.4 18.4 52 6.8 SE 24 32 13 17 1015.8 - 0.0
24/02:00pm 29.6 28.1 17.8 49 7.5 ESE 22 28 12 15 1016.0 - 0.0
24/01:30pm 28.9 26.7 16.8 48 7.6 SE 24 32 13 17 1016.2 - 0.0
24/01:00pm 29.4 27.7 17.2 47 7.7 SE 22 30 12 16 1016.5 - 0.0
24/12:30pm 29.2 27.6 18.3 51 7.0 SSE 24 33 13 18 1016.8 - 0.0
24/12:00pm 29.7 28.2 18.5 51 7.2 SE 24 33 13 18 1016.9 1016.9 0.0
24/11:30am 30.1 28.9 18.5 49 7.5 SSE 22 28 12 15 1017.3 - 0.0
24/11:00am 28.6 26.9 17.2 50 7.2 SSE 22 30 12 16 1017.6 - 0.0
24/10:30am 28.1 26.3 17.0 51 6.9 SSE 22 32 12 17 1017.8 - 0.0
24/10:00am 27.3 25.9 16.9 53 6.5 SSE 20 28 11 15 1018.1 - 0.0
24/09:30am 28.5 27.0 16.7 48 7.4 SE 20 26 11 14 1018.1 - 0.0
24/09:00am 27.8 25.5 15.8 48 7.4 SE 22 30 12 16 1018.1 1018.1 0.0
24/08:30am 27.5 25.1 15.5 48 7.3 SE 22 32 12 17 1018.1 - 0.0
24/08:00am 25.8 25.1 17.4 59 5.2 S 17 24 9 13 1017.9 - 0.0
24/07:30am 24.3 24.2 17.8 67 4.1 S 15 20 8 11 1017.6 - 0.0
24/07:00am 24.0 24.1 18.4 71 3.5 S 15 20 8 11 1017.4 - 0.0
24/06:30am 22.8 22.6 17.7 73 3.2 SSW 15 20 8 11 1017.1 - 0.0
24/06:00am 22.4 22.7 17.8 75 2.9 SSW 13 19 7 10 1016.7 1016.7 0.0
24/05:30am 22.1 21.9 17.7 76 2.7 S 15 19 8 10 1016.4 - 0.0
24/05:00am 22.6 22.8 17.7 74 3.0 S 13 17 7 9 1016.3 - 0.0
24/04:30am 22.8 22.6 17.7 73 3.2 S 15 19 8 10 1016.2 - 0.0
24/04:00am 22.8 22.1 17.3 71 3.4 SSW 17 24 9 13 1016.2 - 0.0
24/03:30am 21.6 22.0 17.2 76 2.7 SW 11 13 6 7 1016.2 - 0.0
24/03:00am 21.6 22.3 17.0 75 2.8 SW 9 11 5 6 1016.3 1016.3 0.0
24/02:30am 22.2 22.2 17.3 74 3.0 SW 13 15 7 8 1016.4 - 0.0
24/02:00am 22.8 22.6 16.8 69 3.7 WSW 13 17 7 9 1016.6 - 0.0
24/01:30am 24.2 23.4 16.2 61 4.9 SSE 15 20 8 11 1016.8 - 0.0
24/01:00am 25.0 23.3 17.2 62 4.8 SE 22 30 12 16 1016.9 - 0.0
24/12:30am 25.0 23.6 18.0 65 4.4 SE 22 30 12 16 1017.3 - 0.0
24/12:00am 25.0 23.6 17.0 61 4.9 SE 20 28 11 15 1017.5 1017.5 0.0
 
Date/Time
EST
Temp
°C
App
Temp
°C
Dew
Point
°C
Rel
Hum
%
Delta-T
°C
Wind Press
QNH
hPa
Press
MSL
hPa
Rain since
9am
mm
Dir  Spd
km/h
Gust
km/h
Spd
kts
Gust
kts
23/11:30pm 25.1 22.7 16.5 59 5.3 SE 24 32 13 17 1017.6 - 0.0
23/11:00pm 25.3 23.1 17.0 60 5.1 SE 24 33 13 18 1017.8 - 0.0
23/10:30pm 25.3 22.5 16.4 57 5.5 SE 26 35 14 19 1017.9 - 0.0
23/10:00pm 25.5 23.6 17.7 62 4.9 SE 24 35 13 19 1018.2 - 0.0
23/09:30pm 25.3 23.6 18.0 64 4.6 SE 24 33 13 18 1018.1 - 0.0
23/09:00pm 25.5 24.0 17.7 62 4.9 SE 22 28 12 15 1018.4 1018.4 0.0
23/08:30pm 25.4 23.7 17.3 61 5.0 SE 22 30 12 16 1018.4 - 0.0

Latest Capital City Observations: Canberra | Sydney | Melbourne | Brisbane | Adelaide | Perth | Hobart | Darwin

Other Formats:

Comma delimited format used in spreadsheet applications
http://www.bom.gov.au/fwo/IDQ60901/IDQ60901.94569.axf

JavaScript Object Notation format (JSON) in row-major order
http://www.bom.gov.au/fwo/IDQ60901/IDQ60901.94569.json